Aeroporto :
LOGIN :

Iscrizione | Disclaimer

   EN    FR    IT 

 










Sommario :    VFR   VFR Marginale   IFR   IFR Intensivo   IFR Molto Intensivo
Visibilità : 
Base nubi : 
>= 8 km
>= 3000ft
5 / 8 km
1000 / 3000 ft
1500m / 5 km
500 / 1000 ft
800 / 1500m
200 / 500 ft
< 800m
< 200 ft
Simboli :   Temporali  Nebbia  Neve Forte  Precipitazioni Forti  Vento > 20 kt
SIGMETs :   Varie  Temporali  Ghiacco  Turbolenza  Onda orograficha  Ceneri Vulcaniche






- Altitudine del aeroporto : 1521 ft
- Codice IATA : NCY


LFLP - Annecy

ULTIMO METAR :
  • 221130Z AUTO 05008KT 9999 OVC018 15/12 Q1022 NOSIG

METARs OBSOLETI :
  • 221100Z AUTO 07006KT 9999 OVC020 15/12 Q1022 NOSIG
  • 221030Z AUTO 06006KT 020V080 9999 OVC020 16/12 Q1023 NOSIG
  • 221000Z AUTO 06007KT 040V100 9999 OVC019 15/12 Q1023 TEMPO BKN014
  • 220930Z AUTO VRB01KT 9999 OVC019 15/13 Q1023 TEMPO BKN014
  • 220900Z AUTO VRB02KT 9999 FEW009 OVC021 14/13 Q1023 TEMPO BKN014

TAF TAF LFLP
Valido dal 22 a 09 ore il 23 a 09 ore UTC


220800Z 2209/2309 02005KT 9999 BKN080
PROB40
TEMPO 2209/2211 BKN014
BECMG 2209/2211 CAVOK
PROB30
TEMPO 2300/2306 VRB02KT 0400 FG VV///



MetMap, La meteo Aeronautica in un colpo d'occhio ! - Copyright ORBIFLY Dicembre 2007 - Disclaimer

ORBIFLY MET'MAP TEAM :

Programmazione e sviluppo : Alexandra Zaïnal
Concezione e sviluppo : Baudouin d'Aumeries
Co-Programmazione e sviluppo : Marc-Olivier Méhu
Supporto tecnico e logistico : Manuel Goepfert
Aiuto per la traduzione : Arnaldo La Scala

Contatto : metmap@orbifly.com




FONTI E CREDITI :

   NOAA